Ana Sayfa
METAR-TAF:

METAR-TAF

Havaalanları :

Hagåtña, Guam, Amerika Birleşik Devletleri

Enlem: 13-29N, Boylam: 144-48E, yükseklik: 91 m

Güncel hava durumu gözlemi

Rapor saat 13:54 UTC de 44 dakika önce yapıldı.
Rüzgar güney/güneybatıdan 3 kt
Sıcaklık 27°C
Nem 100%
Basınç 1010 hPa
Görüş mesafesi: 16.1 km
Açık gökyüzü

METAR: PGUM 221354Z 21003KT 10SM CLR 27/27 A2982 RMK AO2 SLP090 T02670267 403220261

Saat: 00:38 (14:38 UTC)

Tahmin

Rapor saat 11:36 UTC de 3 saat ve 2 dakika önce yapıldı.
Ayın 22'si saat 12 UTC'den ayın 23'si saat 18 UTC'ye kadar geçerli Tahmin
Rüzgar güney/güneybatıdan 10 kt
Görüş mesafesi: 10 km
1600 ft yükseklikte az bulutlu
4000 ft yükseklikte parçalı bulutlu
7000 ft yükseklikte parçalı çok bulutlu
Civarda sağanaklar

TAF: PGUM 221136Z 2212/2318 20010KT P6SM VCSH FEW016 SCT040 BKN070

4.000'den fazla havaalanı için hava durumu gözlemleri ve tahminleri (METAR ve TAF raporları).

Kullanılabilir istasyonlar harita üzerinde sarı ve kırmızı noktalarla gösterilir.

İstasyonun adını görmek için fareyi noktanın üzerinde gezdirin.

Sonrasında hava gözlem ve tahminlerini görmek için tıklayın.

Haritayı değiştirmek için: yaklaştırmak için siyah artı işaretli yeşil düğmeye ve uzaklaştırmak için de eksi işaretli düğmeye hızla tıklayın; bitişik haritalar için yeşil okları kullanın.


METAR-TAF: